createdAt,value
2019-03-06T00:00:00.142Z,7.30
2019-03-06T00:02:31.319Z,7.30
2019-03-06T00:05:02.101Z,7.30
2019-03-06T00:07:33.170Z,7.40
2019-03-06T00:10:05.493Z,7.40
2019-03-06T00:12:36.595Z,7.40
2019-03-06T00:15:08.925Z,7.40
2019-03-06T00:17:39.775Z,7.40
2019-03-06T00:20:10.642Z,7.40
2019-03-06T00:22:41.449Z,7.30
2019-03-06T00:25:12.259Z,7.30
2019-03-06T00:27:43.024Z,7.30
2019-03-06T00:30:15.999Z,7.20
2019-03-06T00:32:47.398Z,7.20
2019-03-06T00:35:35.062Z,7.20
2019-03-06T00:38:06.166Z,7.20
2019-03-06T00:40:53.979Z,7.20
2019-03-06T00:43:24.758Z,7.20
2019-03-06T00:45:55.547Z,7.20
2019-03-06T00:48:26.314Z,7.20
2019-03-06T00:50:57.110Z,7.20
2019-03-06T00:53:27.898Z,7.20
2019-03-06T00:55:58.694Z,7.20
2019-03-06T00:58:29.475Z,7.20
2019-03-06T01:01:00.442Z,7.20
2019-03-06T01:03:31.205Z,7.20
2019-03-06T01:06:02.011Z,7.20
2019-03-06T01:08:32.780Z,7.20
2019-03-06T01:11:03.758Z,7.20
2019-03-06T01:13:34.598Z,7.20
2019-03-06T01:16:05.414Z,7.20
2019-03-06T01:18:36.515Z,7.20
2019-03-06T01:21:07.307Z,7.20
2019-03-06T01:23:38.363Z,7.20
2019-03-06T01:26:09.390Z,7.10
2019-03-06T01:28:40.204Z,7.10
2019-03-06T01:31:10.990Z,7.10
2019-03-06T01:33:52.466Z,7.10
2019-03-06T01:36:27.854Z,7.10
2019-03-06T01:39:03.188Z,7.00
2019-03-06T01:41:41.825Z,7.00
2019-03-06T01:44:17.538Z,7.00
2019-03-06T01:46:48.317Z,7.00
2019-03-06T01:49:19.102Z,7.00
2019-03-06T01:51:49.324Z,7.00
2019-03-06T01:54:19.855Z,7.00
2019-03-06T01:56:50.894Z,7.00
2019-03-06T01:59:21.670Z,7.00
2019-03-06T02:01:51.887Z,7.00
2019-03-06T02:04:22.186Z,7.00
2019-03-06T02:06:53.352Z,7.00
2019-03-06T02:09:26.857Z,7.00
2019-03-06T02:11:57.910Z,7.00
2019-03-06T02:14:28.731Z,7.00
2019-03-06T02:16:59.554Z,7.00
2019-03-06T02:19:30.333Z,7.00
2019-03-06T02:22:01.169Z,7.10
2019-03-06T02:24:31.978Z,7.10
2019-03-06T02:27:02.813Z,7.10
2019-03-06T02:29:33.597Z,7.20
2019-03-06T02:32:04.522Z,7.20
2019-03-06T02:34:35.491Z,7.20
2019-03-06T02:37:06.580Z,7.20
2019-03-06T02:39:37.729Z,7.20
2019-03-06T02:42:08.495Z,7.20
2019-03-06T02:44:40.197Z,7.20
2019-03-06T02:47:11.215Z,7.20
2019-03-06T02:49:42.023Z,7.20
2019-03-06T02:52:12.820Z,7.20
2019-03-06T02:54:43.617Z,7.20
2019-03-06T02:57:14.765Z,7.20
2019-03-06T02:59:49.919Z,7.20
2019-03-06T03:02:31.195Z,7.20
2019-03-06T03:05:09.235Z,7.30
2019-03-06T03:07:40.054Z,7.30
2019-03-06T03:10:11.328Z,7.30
2019-03-06T03:12:42.123Z,7.30
2019-03-06T03:15:13.415Z,7.30
2019-03-06T03:17:44.210Z,7.30
2019-03-06T03:20:15.447Z,7.30
2019-03-06T03:22:46.552Z,7.30
2019-03-06T03:25:17.351Z,7.30
2019-03-06T03:27:48.392Z,7.30
2019-03-06T03:30:19.478Z,7.30
2019-03-06T03:32:50.539Z,7.30
2019-03-06T03:35:21.403Z,7.30
2019-03-06T03:37:52.184Z,7.40
2019-03-06T03:40:22.981Z,7.40
2019-03-06T03:42:53.838Z,7.50
2019-03-06T03:45:24.635Z,7.50
2019-03-06T03:47:55.412Z,7.50
2019-03-06T03:50:26.591Z,7.50
2019-03-06T03:52:57.377Z,7.60
2019-03-06T03:55:28.148Z,7.60
2019-03-06T03:57:58.982Z,7.60
2019-03-06T04:00:29.727Z,7.60
2019-03-06T04:03:00.518Z,7.70
2019-03-06T04:05:31.288Z,7.70
2019-03-06T04:08:02.376Z,7.70
2019-03-06T04:10:33.147Z,7.70
2019-03-06T04:13:03.979Z,7.70
2019-03-06T04:15:34.792Z,7.80
2019-03-06T04:18:05.578Z,7.70
2019-03-06T04:20:36.450Z,7.70
2019-03-06T04:23:07.294Z,7.70
2019-03-06T04:25:38.657Z,7.70
2019-03-06T04:28:09.801Z,7.70
2019-03-06T04:30:40.566Z,7.70
2019-03-06T04:33:11.353Z,7.80
2019-03-06T04:35:42.130Z,7.80
2019-03-06T04:38:13.155Z,7.70
2019-03-06T04:40:43.942Z,7.80
2019-03-06T04:43:14.730Z,7.80
2019-03-06T04:45:45.524Z,7.80
2019-03-06T04:48:16.494Z,7.80
2019-03-06T04:50:47.371Z,7.80
2019-03-06T04:53:18.139Z,7.80
2019-03-06T04:55:48.946Z,7.80
2019-03-06T04:58:19.721Z,7.80
2019-03-06T05:00:50.537Z,7.80
2019-03-06T05:03:21.326Z,7.80
2019-03-06T05:05:51.547Z,7.80
2019-03-06T05:08:22.332Z,7.80
2019-03-06T05:10:53.124Z,7.80
2019-03-06T05:13:25.339Z,7.80
2019-03-06T05:15:56.286Z,7.80
2019-03-06T05:18:28.697Z,7.70
2019-03-06T05:20:59.887Z,7.70
2019-03-06T05:23:30.653Z,7.70
2019-03-06T05:26:01.472Z,7.70
2019-03-06T05:28:32.224Z,7.70
2019-03-06T05:31:02.485Z,7.70
2019-03-06T05:33:33.255Z,7.70
2019-03-06T05:36:38.186Z,7.80
2019-03-06T05:39:10.629Z,7.80
2019-03-06T05:41:41.501Z,7.80
2019-03-06T05:44:12.269Z,7.70
2019-03-06T05:46:43.074Z,7.70
2019-03-06T05:49:14.031Z,7.70
2019-03-06T05:51:44.833Z,7.70
2019-03-06T05:54:15.610Z,7.70
2019-03-06T05:56:48.357Z,7.70
2019-03-06T05:59:20.174Z,7.60
2019-03-06T06:01:50.979Z,7.60
2019-03-06T06:04:21.757Z,7.70
2019-03-06T06:06:52.866Z,7.70
2019-03-06T06:09:23.626Z,7.70
2019-03-06T06:11:54.730Z,7.70
2019-03-06T06:14:25.608Z,7.70
2019-03-06T06:16:56.384Z,7.60
2019-03-06T06:19:26.838Z,7.60
2019-03-06T06:22:08.639Z,7.60
2019-03-06T06:24:39.014Z,7.70
2019-03-06T06:27:10.101Z,7.70
2019-03-06T06:29:40.897Z,7.70
2019-03-06T06:32:11.668Z,7.70
2019-03-06T06:34:42.478Z,7.60
2019-03-06T06:37:13.557Z,7.80
2019-03-06T06:39:43.769Z,7.80
2019-03-06T06:42:15.030Z,7.80
2019-03-06T06:44:46.179Z,7.80
2019-03-06T06:47:16.383Z,7.80
2019-03-06T06:49:47.189Z,7.80
2019-03-06T06:52:26.994Z,7.80
2019-03-06T06:55:20.646Z,7.90
2019-03-06T06:57:54.504Z,7.90
2019-03-06T07:00:44.915Z,7.90
2019-03-06T07:03:59.206Z,7.90
2019-03-06T07:06:31.981Z,8.00
2019-03-06T07:09:22.814Z,8.10
2019-03-06T07:12:01.257Z,8.10
2019-03-06T07:14:46.005Z,8.10
2019-03-06T07:17:21.083Z,8.10
2019-03-06T07:20:01.712Z,8.20
2019-03-06T07:22:37.165Z,8.20
2019-03-06T07:25:13.367Z,8.20
2019-03-06T07:27:46.134Z,8.30
2019-03-06T07:30:27.725Z,8.30
2019-03-06T07:33:16.654Z,8.40
2019-03-06T07:35:59.998Z,8.50
2019-03-06T07:38:31.109Z,8.50
2019-03-06T07:41:09.837Z,8.60
2019-03-06T07:43:42.255Z,8.60
2019-03-06T07:46:17.630Z,8.70
2019-03-06T07:48:56.364Z,8.70
2019-03-06T07:51:35.196Z,8.80
2019-03-06T07:54:16.829Z,8.80
2019-03-06T07:56:49.300Z,8.90
2019-03-06T07:59:20.133Z,8.90
2019-03-06T08:01:56.859Z,9.00
2019-03-06T08:04:27.643Z,9.10
2019-03-06T08:07:00.063Z,9.10
2019-03-06T08:09:30.837Z,9.20
2019-03-06T08:12:15.869Z,9.30
2019-03-06T08:15:04.510Z,9.30
2019-03-06T08:17:42.778Z,9.40
2019-03-06T08:20:20.790Z,9.40
2019-03-06T08:22:56.170Z,9.50
2019-03-06T08:25:31.290Z,9.50
2019-03-06T08:28:02.352Z,9.50
2019-03-06T08:30:35.031Z,9.60
2019-03-06T08:33:06.294Z,9.60
2019-03-06T08:35:37.055Z,9.70
2019-03-06T08:38:07.890Z,9.80
2019-03-06T08:40:38.676Z,9.80
2019-03-06T08:43:09.422Z,9.90
2019-03-06T08:45:50.543Z,9.90
2019-03-06T08:48:28.798Z,9.90
2019-03-06T08:51:01.226Z,10.00
2019-03-06T08:53:36.602Z,10.10
2019-03-06T08:56:15.465Z,10.20
2019-03-06T08:58:47.856Z,10.20
2019-03-06T09:01:37.778Z,10.30
2019-03-06T09:04:11.124Z,10.30
2019-03-06T09:06:46.381Z,10.40
2019-03-06T09:09:37.453Z,10.30
2019-03-06T09:12:09.873Z,10.40
2019-03-06T09:14:44.879Z,10.40
2019-03-06T09:17:35.584Z,10.50
2019-03-06T09:20:34.975Z,10.50
2019-03-06T09:23:11.715Z,10.50
2019-03-06T09:25:44.136Z,10.60
2019-03-06T09:28:32.599Z,10.60
2019-03-06T09:31:14.414Z,10.60
2019-03-06T09:33:52.940Z,10.60
2019-03-06T09:36:25.715Z,10.60
2019-03-06T09:39:01.054Z,10.60
2019-03-06T09:41:45.239Z,10.60
2019-03-06T09:44:27.301Z,10.60
2019-03-06T09:47:08.785Z,10.70
2019-03-06T09:49:41.186Z,10.70
2019-03-06T09:52:13.951Z,10.80
2019-03-06T09:54:51.909Z,10.80
2019-03-06T09:57:40.546Z,10.80
2019-03-06T10:00:32.834Z,10.80
2019-03-06T10:03:21.964Z,10.80
2019-03-06T10:05:54.564Z,10.80
2019-03-06T10:08:36.010Z,10.80
2019-03-06T10:11:18.412Z,10.80
2019-03-06T10:14:00.544Z,10.90
2019-03-06T10:16:38.909Z,10.90
2019-03-06T10:19:14.238Z,10.90
2019-03-06T10:21:45.330Z,10.90
2019-03-06T10:24:16.146Z,11.00
2019-03-06T10:26:46.943Z,11.00
2019-03-06T10:29:17.946Z,11.00
2019-03-06T10:31:48.982Z,11.10
2019-03-06T10:34:20.062Z,11.10
2019-03-06T10:36:50.930Z,11.10
2019-03-06T10:39:21.712Z,11.10
2019-03-06T10:41:52.475Z,11.20
2019-03-06T10:44:29.571Z,11.20
2019-03-06T10:46:56.037Z,11.20
2019-03-06T10:49:27.998Z,11.20
2019-03-06T10:51:59.074Z,11.30
2019-03-06T10:54:29.942Z,11.40
2019-03-06T10:57:00.702Z,11.50
2019-03-06T10:59:32.038Z,11.50
2019-03-06T11:02:02.851Z,11.60
2019-03-06T11:04:51.180Z,11.60
2019-03-06T11:07:22.486Z,11.60
2019-03-06T11:09:53.799Z,11.50
2019-03-06T11:12:25.226Z,11.60
2019-03-06T11:14:56.081Z,11.60
2019-03-06T11:17:26.952Z,11.60
2019-03-06T11:19:58.362Z,11.60
2019-03-06T11:22:29.611Z,11.60
2019-03-06T11:25:00.362Z,11.70
2019-03-06T11:27:31.155Z,11.70
2019-03-06T11:30:02.237Z,11.80
2019-03-06T11:32:33.434Z,11.90
2019-03-06T11:35:06.638Z,12.00
2019-03-06T11:37:37.408Z,12.10
2019-03-06T11:40:11.259Z,12.20
2019-03-06T11:42:42.230Z,12.30
2019-03-06T11:45:19.476Z,12.40
2019-03-06T11:47:50.320Z,12.50
2019-03-06T11:50:21.218Z,12.60
2019-03-06T11:52:52.454Z,12.70
2019-03-06T11:55:23.666Z,12.80
2019-03-06T11:57:54.575Z,12.80
2019-03-06T12:00:36.759Z,12.90
2019-03-06T12:03:08.090Z,12.90
2019-03-06T12:05:39.290Z,12.90
2019-03-06T12:08:18.281Z,13.00
2019-03-06T12:10:50.717Z,13.00
2019-03-06T12:13:21.606Z,13.00
2019-03-06T12:15:52.579Z,13.00
2019-03-06T12:18:24.623Z,13.10
2019-03-06T12:20:55.957Z,13.10
2019-03-06T12:23:27.314Z,13.00
2019-03-06T12:25:58.095Z,13.00
2019-03-06T12:28:28.874Z,13.00
2019-03-06T12:31:00.522Z,12.90
2019-03-06T12:33:31.324Z,12.90
2019-03-06T12:36:02.218Z,12.90
2019-03-06T12:38:33.146Z,12.80
2019-03-06T12:41:04.808Z,12.90
2019-03-06T12:43:36.118Z,12.90
2019-03-06T12:46:22.729Z,12.90
2019-03-06T12:48:53.526Z,13.00
2019-03-06T12:51:24.750Z,13.00
2019-03-06T12:53:56.007Z,13.00
2019-03-06T12:56:26.959Z,13.00
2019-03-06T12:58:57.718Z,13.00
2019-03-06T13:01:28.842Z,12.90
2019-03-06T13:03:59.866Z,12.90
2019-03-06T13:06:30.699Z,12.90
2019-03-06T13:09:01.722Z,12.90
2019-03-06T13:11:32.494Z,12.80
2019-03-06T13:14:03.741Z,12.80
2019-03-06T13:16:34.508Z,12.80
2019-03-06T13:19:05.535Z,12.80
2019-03-06T13:21:36.322Z,12.80
2019-03-06T13:24:07.176Z,12.80
2019-03-06T13:26:38.265Z,12.80
2019-03-06T13:29:09.120Z,12.80
2019-03-06T13:31:40.538Z,12.90
2019-03-06T13:34:16.386Z,13.00
2019-03-06T13:36:47.178Z,13.10
2019-03-06T13:39:18.290Z,13.10
2019-03-06T13:41:49.418Z,13.10
2019-03-06T13:44:20.177Z,13.10
2019-03-06T13:46:50.967Z,13.10
2019-03-06T13:49:21.810Z,13.10
2019-03-06T13:51:52.674Z,13.10
2019-03-06T13:54:23.720Z,13.10
2019-03-06T13:56:55.073Z,13.10
2019-03-06T13:59:25.831Z,13.00
2019-03-06T14:01:56.950Z,13.00
2019-03-06T14:04:27.727Z,13.00
2019-03-06T14:06:58.515Z,13.00
2019-03-06T14:09:29.878Z,13.00
2019-03-06T14:12:00.710Z,13.00
2019-03-06T14:14:31.554Z,12.90
2019-03-06T14:17:02.901Z,12.90
2019-03-06T14:19:33.735Z,13.00
2019-03-06T14:22:05.531Z,12.90
2019-03-06T14:24:36.383Z,13.00
2019-03-06T14:27:08.078Z,13.00
2019-03-06T14:29:39.258Z,13.00
2019-03-06T14:32:14.799Z,13.10
2019-03-06T14:34:42.686Z,13.20
2019-03-06T14:37:13.819Z,13.20
2019-03-06T14:39:44.614Z,13.20
2019-03-06T14:42:15.546Z,13.20
2019-03-06T14:44:46.333Z,13.20
2019-03-06T14:47:18.247Z,13.20
2019-03-06T14:49:49.044Z,13.30
2019-03-06T14:52:19.886Z,13.30
2019-03-06T14:54:51.634Z,13.40
2019-03-06T14:57:22.411Z,13.30
2019-03-06T14:59:53.823Z,13.40
2019-03-06T15:02:24.584Z,13.40
2019-03-06T15:04:55.708Z,13.50
2019-03-06T15:07:26.749Z,13.50
2019-03-06T15:09:57.593Z,13.60
2019-03-06T15:12:28.702Z,13.60
2019-03-06T15:14:59.504Z,13.60
2019-03-06T15:17:30.514Z,13.70
2019-03-06T15:20:01.308Z,13.70
2019-03-06T15:22:38.431Z,13.70
2019-03-06T15:25:10.537Z,13.80
2019-03-06T15:27:41.306Z,13.80
2019-03-06T15:30:14.562Z,13.90
2019-03-06T15:32:45.807Z,13.90
2019-03-06T15:35:17.246Z,13.90
2019-03-06T15:37:48.261Z,14.00
2019-03-06T15:40:31.709Z,13.90
2019-03-06T15:43:02.559Z,13.90
2019-03-06T15:45:33.919Z,13.90
2019-03-06T15:48:05.438Z,13.90
2019-03-06T15:50:36.713Z,14.00
2019-03-06T15:53:07.714Z,13.90
2019-03-06T15:55:38.494Z,13.90
2019-03-06T15:58:09.735Z,13.90
2019-03-06T16:00:46.234Z,13.90
2019-03-06T16:03:16.567Z,13.90
2019-03-06T16:05:47.458Z,13.90
2019-03-06T16:08:18.514Z,13.90
2019-03-06T16:10:49.826Z,13.90
2019-03-06T16:13:20.702Z,13.90
2019-03-06T16:15:51.585Z,13.90
2019-03-06T16:18:22.350Z,13.90
2019-03-06T16:20:53.206Z,13.90
2019-03-06T16:23:24.238Z,13.90
2019-03-06T16:25:55.398Z,13.90
2019-03-06T16:28:26.190Z,14.00
2019-03-06T16:30:56.994Z,13.90
2019-03-06T16:33:27.802Z,13.90
2019-03-06T16:35:58.782Z,13.80
2019-03-06T16:38:29.725Z,13.90
2019-03-06T16:41:00.643Z,13.80
2019-03-06T16:43:31.465Z,13.80
2019-03-06T16:46:02.326Z,13.80
2019-03-06T16:48:33.359Z,13.80
2019-03-06T16:51:04.342Z,13.70
2019-03-06T16:53:35.562Z,13.70
2019-03-06T16:56:06.350Z,13.70
2019-03-06T16:58:37.147Z,13.60
2019-03-06T17:01:08.597Z,13.60
2019-03-06T17:03:39.738Z,13.60
2019-03-06T17:06:10.978Z,13.60
2019-03-06T17:08:41.743Z,13.60
2019-03-06T17:11:12.804Z,13.60
2019-03-06T17:13:43.858Z,13.60
2019-03-06T17:16:15.753Z,13.50
2019-03-06T17:18:46.497Z,13.50
2019-03-06T17:21:17.364Z,13.50
2019-03-06T17:23:48.155Z,13.50
2019-03-06T17:26:20.757Z,13.50
2019-03-06T17:28:51.920Z,13.50
2019-03-06T17:31:22.863Z,13.40
2019-03-06T17:33:53.861Z,13.30
2019-03-06T17:36:24.783Z,13.30
2019-03-06T17:38:56.001Z,13.40
2019-03-06T17:41:28.786Z,13.30
2019-03-06T17:43:59.585Z,13.30
2019-03-06T17:46:30.694Z,13.30
2019-03-06T17:49:01.559Z,13.20
2019-03-06T17:51:32.322Z,13.20
2019-03-06T17:54:03.705Z,13.20
2019-03-06T17:56:34.550Z,13.10
2019-03-06T17:59:05.427Z,13.10
2019-03-06T18:01:36.250Z,13.10
2019-03-06T18:04:12.158Z,13.10
2019-03-06T18:06:43.093Z,13.10
2019-03-06T18:09:13.896Z,13.10
2019-03-06T18:11:44.983Z,13.00
2019-03-06T18:14:15.956Z,13.00
2019-03-06T18:16:47.078Z,13.00
2019-03-06T18:19:17.898Z,12.90
2019-03-06T18:21:49.170Z,12.90
2019-03-06T18:24:20.007Z,12.90
2019-03-06T18:26:50.854Z,13.00
2019-03-06T18:29:21.719Z,12.90
2019-03-06T18:31:52.656Z,12.90
2019-03-06T18:34:23.536Z,12.90
2019-03-06T18:36:54.436Z,12.90
2019-03-06T18:39:25.647Z,12.90
2019-03-06T18:41:56.754Z,12.80
2019-03-06T18:44:27.841Z,12.80
2019-03-06T18:46:58.674Z,12.90
2019-03-06T18:49:29.828Z,12.80
2019-03-06T18:52:00.590Z,12.70
2019-03-06T18:54:32.013Z,12.80
2019-03-06T18:57:03.075Z,12.80
2019-03-06T18:59:33.935Z,12.80
2019-03-06T19:02:05.143Z,12.70
2019-03-06T19:04:36.182Z,12.60
2019-03-06T19:07:07.097Z,12.60
2019-03-06T19:09:38.477Z,12.60
2019-03-06T19:12:09.750Z,12.60
2019-03-06T19:14:42.432Z,12.60
2019-03-06T19:17:13.288Z,12.60
2019-03-06T19:19:44.121Z,12.60
2019-03-06T19:22:15.123Z,12.60
2019-03-06T19:24:46.331Z,12.60
2019-03-06T19:27:17.118Z,12.60
2019-03-06T19:29:47.885Z,12.60
2019-03-06T19:32:18.773Z,12.60
2019-03-06T19:34:49.955Z,12.50
2019-03-06T19:37:20.817Z,12.50
2019-03-06T19:39:51.923Z,12.50
2019-03-06T19:42:22.722Z,12.60
2019-03-06T19:44:53.504Z,12.50
2019-03-06T19:47:24.854Z,12.60
2019-03-06T19:49:55.644Z,12.60
2019-03-06T19:52:26.734Z,12.60
2019-03-06T19:54:57.895Z,12.60
2019-03-06T19:57:31.806Z,12.60
2019-03-06T20:00:04.788Z,12.60
2019-03-06T20:02:35.601Z,12.60
2019-03-06T20:05:07.876Z,12.60
2019-03-06T20:07:38.895Z,12.60
2019-03-06T20:10:10.121Z,12.60
2019-03-06T20:12:41.070Z,12.60
2019-03-06T20:15:13.998Z,12.60
2019-03-06T20:17:44.833Z,12.70
2019-03-06T20:20:18.243Z,12.70
2019-03-06T20:22:49.178Z,12.70
2019-03-06T20:25:22.614Z,12.70
2019-03-06T20:27:53.474Z,12.70
2019-03-06T20:30:25.710Z,12.70
2019-03-06T20:32:57.195Z,12.70
2019-03-06T20:35:28.502Z,12.70
2019-03-06T20:37:59.568Z,12.70
2019-03-06T20:40:30.705Z,12.70
2019-03-06T20:43:01.841Z,12.60
2019-03-06T20:45:34.372Z,12.60
2019-03-06T20:48:05.358Z,12.60
2019-03-06T20:50:36.402Z,12.50
2019-03-06T20:53:07.191Z,12.60
2019-03-06T20:55:38.059Z,12.60
2019-03-06T20:58:09.235Z,12.60
2019-03-06T21:00:40.065Z,12.60
2019-03-06T21:03:11.243Z,12.60
2019-03-06T21:05:42.081Z,12.60
2019-03-06T21:08:13.154Z,12.60
2019-03-06T21:10:43.980Z,12.70
2019-03-06T21:13:16.568Z,12.60
2019-03-06T21:15:47.290Z,12.60
2019-03-06T21:18:18.300Z,12.60
2019-03-06T21:20:49.086Z,12.60
2019-03-06T21:23:19.921Z,12.60
2019-03-06T21:25:50.718Z,12.60
2019-03-06T21:28:21.502Z,12.60
2019-03-06T21:30:52.370Z,12.60
2019-03-06T21:33:23.134Z,12.60
2019-03-06T21:35:54.193Z,12.60
2019-03-06T21:38:24.964Z,12.60
2019-03-06T21:40:55.834Z,12.60
2019-03-06T21:43:26.599Z,12.60
2019-03-06T21:45:57.727Z,12.60
2019-03-06T21:48:28.875Z,12.60
2019-03-06T21:50:59.682Z,12.60
2019-03-06T21:53:30.462Z,12.60
2019-03-06T21:56:01.614Z,12.60
2019-03-06T21:58:32.755Z,12.60
2019-03-06T22:01:03.887Z,12.60
2019-03-06T22:03:34.958Z,12.50
2019-03-06T22:06:05.842Z,12.50
2019-03-06T22:08:36.945Z,12.60
2019-03-06T22:11:08.075Z,12.50
2019-03-06T22:13:39.132Z,12.50
2019-03-06T22:16:10.199Z,12.60
2019-03-06T22:18:40.989Z,12.60
2019-03-06T22:21:11.786Z,12.60
2019-03-06T22:23:42.553Z,12.50
2019-03-06T22:26:13.615Z,12.60
2019-03-06T22:28:45.080Z,12.50
2019-03-06T22:31:15.847Z,12.50
2019-03-06T22:33:46.647Z,12.50
2019-03-06T22:36:17.690Z,12.50
2019-03-06T22:38:48.476Z,12.60
2019-03-06T22:41:19.235Z,12.50
2019-03-06T22:43:50.034Z,12.60
2019-03-06T22:46:21.148Z,12.60
2019-03-06T22:48:52.291Z,12.50
2019-03-06T22:51:25.428Z,12.50
2019-03-06T22:53:55.931Z,12.50
2019-03-06T22:56:26.694Z,12.50
2019-03-06T22:58:57.492Z,12.40
2019-03-06T23:01:29.266Z,12.50
2019-03-06T23:04:00.221Z,12.50
2019-03-06T23:06:31.229Z,12.50
2019-03-06T23:09:02.039Z,12.50
2019-03-06T23:11:33.115Z,12.50
2019-03-06T23:14:03.982Z,12.50
2019-03-06T23:16:34.755Z,12.50
2019-03-06T23:19:06.254Z,12.50
2019-03-06T23:21:37.042Z,12.50
2019-03-06T23:24:07.832Z,12.50
2019-03-06T23:26:42.809Z,12.40
2019-03-06T23:29:11.109Z,12.50
2019-03-06T23:31:42.395Z,12.50
2019-03-06T23:34:13.451Z,12.50
2019-03-06T23:36:44.243Z,12.50
2019-03-06T23:39:15.374Z,12.50
2019-03-06T23:41:46.470Z,12.50
2019-03-06T23:44:17.539Z,12.50
2019-03-06T23:46:48.295Z,12.50
2019-03-06T23:49:19.154Z,12.50
2019-03-06T23:51:51.795Z,12.50
2019-03-06T23:54:22.603Z,12.50
2019-03-06T23:56:53.534Z,12.50
2019-03-06T23:59:24.396Z,12.50
